createdAt,value
2023-03-24T00:00:41.044Z,19.88
2023-03-24T00:03:10.815Z,16.30
2023-03-24T00:05:38.724Z,16.25
2023-03-24T00:08:06.676Z,16.42
2023-03-24T00:10:37.063Z,11.45
2023-03-24T00:13:06.027Z,16.63
2023-03-24T00:15:34.413Z,16.90
2023-03-24T00:18:02.256Z,16.67
2023-03-24T00:20:32.986Z,13.85
2023-03-24T00:23:00.809Z,15.43
2023-03-24T00:25:33.828Z,16.50
2023-03-24T00:28:01.803Z,13.45
2023-03-24T00:30:31.597Z,10.98
2023-03-24T00:33:02.005Z,19.80
2023-03-24T00:35:31.173Z,16.23
2023-03-24T00:37:58.900Z,18.15
2023-03-24T00:40:28.079Z,16.15
2023-03-24T00:42:55.803Z,11.75
2023-03-24T00:45:25.447Z,15.90
2023-03-24T00:47:54.916Z,8.65
2023-03-24T00:50:27.019Z,13.32
2023-03-24T00:53:02.129Z,9.60
2023-03-24T00:55:29.865Z,11.55
2023-03-24T00:57:57.719Z,15.65
2023-03-24T01:00:27.468Z,13.63
2023-03-24T01:02:59.279Z,17.50
2023-03-24T01:05:30.216Z,13.90
2023-03-24T01:07:58.684Z,12.88
2023-03-24T01:10:28.414Z,15.77
2023-03-24T01:12:59.192Z,16.00
2023-03-24T01:15:29.628Z,15.73
2023-03-24T01:17:58.085Z,19.13
2023-03-24T01:20:26.575Z,13.40
2023-03-24T01:22:54.729Z,12.00
2023-03-24T01:25:24.263Z,21.60
2023-03-24T01:27:54.042Z,23.50
2023-03-24T01:30:23.884Z,21.10
2023-03-24T01:32:53.135Z,21.50
2023-03-24T01:35:22.460Z,19.20
2023-03-24T01:37:50.876Z,13.38
2023-03-24T01:40:21.488Z,19.60
2023-03-24T01:42:49.444Z,13.57
2023-03-24T01:45:56.729Z,13.40
2023-03-24T01:48:27.946Z,19.67
2023-03-24T01:51:00.563Z,19.52
2023-03-24T01:53:29.757Z,17.33
2023-03-24T01:55:57.569Z,12.68
2023-03-24T01:58:29.257Z,13.60
2023-03-24T02:00:59.038Z,23.17
2023-03-24T02:03:30.209Z,22.90
2023-03-24T02:05:58.697Z,13.75
2023-03-24T02:08:32.832Z,17.73
2023-03-24T02:11:03.001Z,13.35
2023-03-24T02:13:30.747Z,16.75
2023-03-24T02:16:10.224Z,26.05
2023-03-24T02:18:47.699Z,24.05
2023-03-24T02:21:48.118Z,13.30
2023-03-24T02:24:53.036Z,17.15
2023-03-24T02:27:39.055Z,15.35
2023-03-24T02:30:27.625Z,15.82
2023-03-24T02:33:31.800Z,17.45
2023-03-24T02:36:34.419Z,17.83
2023-03-24T02:39:52.933Z,16.40
2023-03-24T02:42:36.511Z,26.67
2023-03-24T02:45:17.953Z,21.40
2023-03-24T02:47:54.154Z,19.38
2023-03-24T02:50:30.678Z,19.42
2023-03-24T02:53:07.468Z,27.25
2023-03-24T02:55:41.710Z,18.05
2023-03-24T02:58:16.876Z,24.05
2023-03-24T03:00:48.553Z,28.23
2023-03-24T03:03:21.972Z,17.63
2023-03-24T03:05:55.072Z,18.75
2023-03-24T03:08:24.408Z,23.50
2023-03-24T03:10:55.689Z,21.90
2023-03-24T03:13:31.941Z,20.02
2023-03-24T03:16:05.704Z,21.38
2023-03-24T03:18:40.439Z,22.85
2023-03-24T03:21:13.330Z,22.83
2023-03-24T03:23:44.448Z,23.58
2023-03-24T03:26:16.721Z,24.48
2023-03-24T03:28:51.349Z,18.85
2023-03-24T03:31:23.853Z,17.83
2023-03-24T03:33:59.422Z,15.40
2023-03-24T03:36:32.077Z,22.00
2023-03-24T03:39:08.186Z,21.77
2023-03-24T03:41:38.639Z,19.13
2023-03-24T03:44:06.911Z,23.20
2023-03-24T03:46:36.629Z,18.40
2023-03-24T03:49:05.755Z,23.33
2023-03-24T03:51:34.360Z,14.50
2023-03-24T03:54:04.900Z,18.13
2023-03-24T03:56:36.469Z,15.23
2023-03-24T03:59:06.250Z,15.05
2023-03-24T04:01:37.604Z,16.20
2023-03-24T04:04:38.106Z,19.98
2023-03-24T04:07:13.860Z,22.08
2023-03-24T04:09:56.370Z,18.83
2023-03-24T04:12:50.459Z,22.08
2023-03-24T04:15:36.025Z,21.38
2023-03-24T04:18:29.437Z,32.00
2023-03-24T04:21:15.624Z,20.70
2023-03-24T04:23:54.392Z,20.45
2023-03-24T04:26:28.764Z,19.73
2023-03-24T04:29:09.383Z,20.15
2023-03-24T04:31:44.369Z,15.77
2023-03-24T04:34:20.782Z,19.00
2023-03-24T04:36:54.433Z,17.02
2023-03-24T04:39:28.287Z,20.10
2023-03-24T04:41:58.698Z,25.95
2023-03-24T04:44:28.021Z,12.85
2023-03-24T04:47:00.435Z,16.40
2023-03-24T04:49:28.291Z,18.13
2023-03-24T04:51:56.772Z,15.45
2023-03-24T04:54:24.888Z,17.10
2023-03-24T04:56:54.144Z,15.38
2023-03-24T04:59:22.112Z,19.85
2023-03-24T05:01:50.868Z,12.93
2023-03-24T05:04:22.100Z,10.93
2023-03-24T05:06:50.095Z,22.83
2023-03-24T05:09:21.360Z,19.77
2023-03-24T05:11:49.789Z,16.83
2023-03-24T05:14:18.250Z,16.65
2023-03-24T05:16:46.217Z,24.15
2023-03-24T05:19:14.252Z,17.25
2023-03-24T05:21:43.409Z,15.10
2023-03-24T05:24:12.453Z,15.00
2023-03-24T05:26:40.179Z,16.63
2023-03-24T05:29:08.043Z,11.38
2023-03-24T05:31:35.803Z,10.45
2023-03-24T05:34:03.647Z,20.15
2023-03-24T05:36:31.384Z,15.98
2023-03-24T05:39:00.927Z,14.10
2023-03-24T05:41:28.703Z,18.35
2023-03-24T05:43:56.563Z,14.15
2023-03-24T05:46:26.424Z,13.60
2023-03-24T05:48:54.568Z,23.85
2023-03-24T05:51:22.671Z,18.83
2023-03-24T05:53:52.099Z,18.50
2023-03-24T05:56:21.438Z,19.25
2023-03-24T05:58:49.260Z,16.27
2023-03-24T06:01:18.301Z,20.05
2023-03-24T06:03:46.251Z,17.25
2023-03-24T06:06:16.825Z,13.18
2023-03-24T06:08:46.015Z,13.90
2023-03-24T06:11:14.221Z,12.85
2023-03-24T06:13:44.731Z,12.55
2023-03-24T06:16:12.924Z,18.27
2023-03-24T06:18:42.751Z,21.38
2023-03-24T06:21:10.746Z,18.33
2023-03-24T06:23:38.986Z,16.52
2023-03-24T06:26:10.681Z,13.20
2023-03-24T06:28:39.821Z,17.92
2023-03-24T06:31:18.603Z,28.23
2023-03-24T06:33:46.770Z,16.17
2023-03-24T06:36:15.725Z,19.27
2023-03-24T06:38:45.768Z,19.73
2023-03-24T06:41:13.894Z,19.90
2023-03-24T06:43:41.627Z,20.65
2023-03-24T06:46:11.258Z,22.27
2023-03-24T06:48:39.754Z,18.63
2023-03-24T06:51:08.323Z,16.00
2023-03-24T06:53:37.797Z,18.20
2023-03-24T06:56:06.272Z,22.65
2023-03-24T06:58:35.063Z,13.48
2023-03-24T07:01:03.122Z,30.60
2023-03-24T07:03:33.234Z,20.50
2023-03-24T07:06:01.415Z,28.40
2023-03-24T07:08:37.209Z,28.35
2023-03-24T07:11:08.712Z,24.70
2023-03-24T07:13:38.178Z,16.55
2023-03-24T07:16:06.993Z,16.55
2023-03-24T07:18:37.152Z,24.35
2023-03-24T07:21:05.236Z,17.90
2023-03-24T07:23:33.192Z,18.73
2023-03-24T07:26:01.206Z,21.48
2023-03-24T07:28:28.972Z,17.15
2023-03-24T07:30:56.971Z,20.95
2023-03-24T07:33:25.291Z,22.88
2023-03-24T07:35:57.413Z,15.07
2023-03-24T07:38:25.531Z,22.02
2023-03-24T07:40:53.404Z,22.77
2023-03-24T07:43:21.908Z,26.30
2023-03-24T07:45:49.966Z,13.55
2023-03-24T07:48:18.035Z,19.00
2023-03-24T07:50:46.080Z,17.08
2023-03-24T07:53:19.983Z,17.35
2023-03-24T07:55:48.441Z,15.63
2023-03-24T07:58:16.864Z,22.00
2023-03-24T08:00:44.985Z,9.25
2023-03-24T08:03:15.442Z,31.95
2023-03-24T08:05:44.180Z,14.48
2023-03-24T08:08:12.060Z,13.15
2023-03-24T08:10:42.675Z,16.67
2023-03-24T08:13:10.513Z,19.00
2023-03-24T08:15:39.040Z,27.20
2023-03-24T08:18:07.060Z,16.20
2023-03-24T08:20:35.183Z,16.98
2023-03-24T08:23:04.824Z,18.83
2023-03-24T08:25:33.176Z,17.90
2023-03-24T08:28:02.370Z,20.60
2023-03-24T08:30:30.635Z,15.68
2023-03-24T08:33:00.967Z,22.10
2023-03-24T08:35:31.550Z,13.77
2023-03-24T08:38:01.192Z,13.38
2023-03-24T08:40:31.846Z,13.35
2023-03-24T08:43:03.306Z,13.20
2023-03-24T08:45:33.649Z,27.60
2023-03-24T08:48:06.144Z,17.08
2023-03-24T08:50:38.192Z,16.50
2023-03-24T08:53:06.097Z,26.08
2023-03-24T08:55:34.599Z,19.20
2023-03-24T08:58:03.838Z,14.30
2023-03-24T09:00:31.660Z,19.42
2023-03-24T09:03:01.344Z,15.00
2023-03-24T09:05:43.569Z,13.93
2023-03-24T09:08:12.526Z,19.13
2023-03-24T09:10:42.772Z,17.15
2023-03-24T09:13:11.898Z,21.38
2023-03-24T09:15:40.089Z,15.68
2023-03-24T09:18:10.489Z,39.15
2023-03-24T09:20:38.271Z,18.38
2023-03-24T09:23:06.530Z,13.18
2023-03-24T09:25:34.346Z,17.95
2023-03-24T09:28:02.510Z,10.35
2023-03-24T09:30:34.004Z,10.10
2023-03-24T09:33:02.949Z,15.20
2023-03-24T09:35:31.275Z,17.60
2023-03-24T09:37:59.324Z,10.63
2023-03-24T09:40:29.268Z,8.70
2023-03-24T09:43:01.172Z,7.38
2023-03-24T09:45:35.038Z,12.85
2023-03-24T09:48:09.966Z,8.85
2023-03-24T09:50:43.129Z,12.15
2023-03-24T09:53:21.398Z,12.10
2023-03-24T09:55:50.470Z,20.52
2023-03-24T09:58:20.018Z,8.25
2023-03-24T10:00:49.505Z,19.98
2023-03-24T10:03:21.700Z,15.93
2023-03-24T10:05:54.282Z,14.45
2023-03-24T10:08:30.694Z,12.75
2023-03-24T10:11:04.844Z,13.15
2023-03-24T10:13:45.083Z,42.63
2023-03-24T10:16:23.428Z,14.93
2023-03-24T10:19:00.162Z,11.57
2023-03-24T10:21:31.726Z,20.48
2023-03-24T10:24:07.798Z,16.75
2023-03-24T10:26:43.636Z,17.30
2023-03-24T10:29:22.925Z,25.77
2023-03-24T10:31:55.478Z,19.05
2023-03-24T10:34:27.428Z,23.45
2023-03-24T10:36:57.678Z,26.02
2023-03-24T10:39:38.057Z,22.80
2023-03-24T10:42:16.898Z,17.58
2023-03-24T10:44:45.277Z,17.98
2023-03-24T10:47:15.887Z,31.77
2023-03-24T10:49:54.894Z,26.50
2023-03-24T10:52:24.568Z,33.35
2023-03-24T10:54:57.545Z,18.02
2023-03-24T10:57:27.051Z,21.63
2023-03-24T10:59:57.851Z,15.75
2023-03-24T11:02:30.623Z,17.83
2023-03-24T11:05:00.208Z,21.85
2023-03-24T11:07:33.596Z,22.05
2023-03-24T11:10:06.397Z,19.85
2023-03-24T11:12:36.715Z,19.85
2023-03-24T11:15:21.218Z,17.38
2023-03-24T11:17:57.277Z,20.98
2023-03-24T11:20:33.066Z,32.05
2023-03-24T11:23:03.761Z,19.88
2023-03-24T11:25:34.546Z,22.88
2023-03-24T11:28:05.206Z,26.52
2023-03-24T11:30:37.135Z,29.30
2023-03-24T11:33:07.274Z,23.45
2023-03-24T11:35:41.835Z,29.70
2023-03-24T11:38:17.496Z,22.80
2023-03-24T11:40:54.807Z,23.00
2023-03-24T11:43:23.121Z,17.92
2023-03-24T11:46:00.067Z,23.60
2023-03-24T11:48:40.482Z,19.02
2023-03-24T11:51:12.508Z,23.45
2023-03-24T11:53:45.671Z,16.42
2023-03-24T11:56:19.046Z,16.20
2023-03-24T11:58:50.964Z,24.13
2023-03-24T12:01:28.520Z,27.35
2023-03-24T12:04:16.362Z,19.05
2023-03-24T12:06:56.808Z,18.20
2023-03-24T12:09:32.484Z,21.75
2023-03-24T12:12:17.675Z,25.55
2023-03-24T12:15:20.664Z,25.38
2023-03-24T12:18:05.852Z,24.45
2023-03-24T12:20:38.879Z,24.15
2023-03-24T12:23:14.129Z,16.98
2023-03-24T12:25:58.342Z,14.32
2023-03-24T12:28:52.739Z,17.33
2023-03-24T12:31:59.929Z,19.50
2023-03-24T12:34:59.379Z,24.33
2023-03-24T12:37:41.237Z,22.25
2023-03-24T12:40:35.899Z,21.95
2023-03-24T12:43:16.268Z,29.67
2023-03-24T12:45:49.482Z,24.42
2023-03-24T12:48:42.052Z,28.77
2023-03-24T12:51:22.189Z,24.33
2023-03-24T12:54:06.453Z,22.00
2023-03-24T12:56:39.027Z,27.25
2023-03-24T12:59:14.620Z,22.58
2023-03-24T13:01:44.641Z,20.13
2023-03-24T13:04:17.036Z,21.35
2023-03-24T13:06:49.907Z,22.10
2023-03-24T13:09:33.384Z,24.05
2023-03-24T13:12:06.843Z,22.95
2023-03-24T13:14:50.732Z,21.70
2023-03-24T13:17:22.872Z,21.70
2023-03-24T13:19:52.721Z,22.35
2023-03-24T13:22:24.256Z,26.33
2023-03-24T13:24:56.283Z,28.33
2023-03-24T13:27:25.830Z,16.55
2023-03-24T13:30:09.322Z,22.73
2023-03-24T13:32:42.252Z,18.45
2023-03-24T13:35:19.459Z,19.50
2023-03-24T13:37:51.868Z,20.80
2023-03-24T13:40:26.462Z,19.75
2023-03-24T13:42:57.040Z,16.67
2023-03-24T13:45:32.627Z,18.77
2023-03-24T13:48:19.303Z,10.63
2023-03-24T13:50:59.012Z,13.27
2023-03-24T13:53:37.855Z,10.57
2023-03-24T13:56:10.020Z,12.30
2023-03-24T13:59:11.340Z,16.38
2023-03-24T14:01:40.886Z,12.38
2023-03-24T14:04:29.740Z,41.60
2023-03-24T14:06:59.757Z,13.43
2023-03-24T14:09:29.380Z,13.88
2023-03-24T14:12:19.557Z,19.77
2023-03-24T14:15:17.810Z,12.10
2023-03-24T14:17:48.161Z,9.52
2023-03-24T14:20:36.132Z,11.32
2023-03-24T14:23:05.273Z,12.35
2023-03-24T14:25:34.315Z,7.82
2023-03-24T14:28:20.962Z,10.02
2023-03-24T14:31:04.249Z,6.47
2023-03-24T14:33:32.273Z,7.38
2023-03-24T14:36:06.351Z,7.13
2023-03-24T14:38:37.841Z,4.75
2023-03-24T14:41:13.971Z,5.57
2023-03-24T14:43:58.416Z,6.07
2023-03-24T14:46:44.760Z,5.60
2023-03-24T14:49:24.674Z,6.00
2023-03-24T14:52:04.881Z,10.02
2023-03-24T14:54:39.557Z,3.75
2023-03-24T14:57:08.810Z,3.15
2023-03-24T14:59:46.700Z,4.22
2023-03-24T15:02:35.891Z,4.25
2023-03-24T15:05:20.512Z,5.28
2023-03-24T15:08:04.673Z,4.20
2023-03-24T15:10:40.568Z,5.90
2023-03-24T15:13:29.309Z,5.63
2023-03-24T15:15:59.969Z,2.90
2023-03-24T15:18:28.449Z,3.75
2023-03-24T15:20:56.281Z,3.40
2023-03-24T15:23:28.140Z,2.70
2023-03-24T15:25:56.627Z,4.20
2023-03-24T15:28:27.836Z,5.60
2023-03-24T15:30:59.722Z,5.28
2023-03-24T15:33:30.912Z,3.88
2023-03-24T15:36:00.940Z,3.28
2023-03-24T15:38:30.763Z,4.65
2023-03-24T15:41:02.143Z,3.17
2023-03-24T15:43:31.144Z,3.85
2023-03-24T15:46:11.748Z,4.35
2023-03-24T15:49:06.465Z,3.97
2023-03-24T15:51:50.973Z,3.83
2023-03-24T15:54:24.142Z,7.35
2023-03-24T15:57:13.822Z,6.53
2023-03-24T15:59:46.863Z,5.90
2023-03-24T16:02:25.581Z,4.93
2023-03-24T16:05:10.688Z,4.88
2023-03-24T16:07:40.828Z,9.18
2023-03-24T16:10:29.057Z,6.28
2023-03-24T16:12:56.876Z,7.55
2023-03-24T16:15:24.749Z,6.30
2023-03-24T16:17:54.140Z,6.07
2023-03-24T16:20:23.352Z,5.07
2023-03-24T16:22:51.220Z,4.88
2023-03-24T16:25:19.105Z,4.97
2023-03-24T16:27:46.898Z,11.60
2023-03-24T16:30:21.773Z,10.07
2023-03-24T16:32:49.613Z,8.20
2023-03-24T16:35:18.857Z,6.57
2023-03-24T16:37:47.098Z,7.95
2023-03-24T16:40:41.639Z,8.70
2023-03-24T16:43:09.627Z,7.85
2023-03-24T16:45:37.389Z,7.70
2023-03-24T16:48:05.727Z,10.55
2023-03-24T16:50:37.584Z,9.40
2023-03-24T16:53:05.728Z,10.60
2023-03-24T16:55:33.658Z,10.05
2023-03-24T16:58:01.468Z,10.57
2023-03-24T17:00:30.037Z,10.88
2023-03-24T17:02:59.711Z,9.43
2023-03-24T17:05:30.205Z,9.50
2023-03-24T17:07:59.593Z,9.80
2023-03-24T17:10:28.475Z,9.93
2023-03-24T17:12:57.738Z,12.48
2023-03-24T17:15:27.583Z,14.07
2023-03-24T17:17:56.176Z,15.90
2023-03-24T17:20:26.520Z,16.27
2023-03-24T17:22:56.935Z,17.27
2023-03-24T17:25:29.263Z,20.77
2023-03-24T17:27:58.180Z,13.05
2023-03-24T17:30:27.957Z,14.23
2023-03-24T17:32:55.770Z,15.15
2023-03-24T17:35:25.101Z,13.88
2023-03-24T17:37:52.873Z,17.38
2023-03-24T17:40:21.789Z,16.95
2023-03-24T17:42:51.033Z,21.52
2023-03-24T17:45:20.345Z,19.30
2023-03-24T17:47:48.223Z,21.20
2023-03-24T17:50:15.968Z,18.08
2023-03-24T17:52:46.751Z,20.40
2023-03-24T17:55:16.392Z,21.48
2023-03-24T17:57:44.684Z,23.05
2023-03-24T18:00:16.375Z,23.40
2023-03-24T18:02:44.993Z,28.02
2023-03-24T18:05:13.523Z,24.10
2023-03-24T18:07:41.634Z,24.45
2023-03-24T18:10:10.619Z,21.50
2023-03-24T18:12:38.484Z,22.13
2023-03-24T18:15:07.741Z,20.23
2023-03-24T18:17:37.251Z,29.10
2023-03-24T18:20:10.845Z,19.40
2023-03-24T18:22:40.884Z,16.38
2023-03-24T18:25:10.160Z,18.42
2023-03-24T18:27:38.923Z,18.17
2023-03-24T18:30:09.314Z,16.23
2023-03-24T18:32:39.280Z,17.35
2023-03-24T18:35:08.832Z,16.38
2023-03-24T18:37:36.922Z,14.68
2023-03-24T18:40:08.555Z,13.23
2023-03-24T18:42:37.068Z,14.93
2023-03-24T18:45:05.657Z,15.55
2023-03-24T18:47:33.635Z,13.93
2023-03-24T18:50:02.931Z,14.50
2023-03-24T18:52:30.850Z,13.93
2023-03-24T18:54:59.576Z,10.55
2023-03-24T18:57:27.412Z,13.93
2023-03-24T18:59:55.286Z,7.82
2023-03-24T19:02:23.048Z,6.43
2023-03-24T19:04:50.862Z,7.03
2023-03-24T19:07:26.359Z,6.40
2023-03-24T19:09:54.366Z,5.75
2023-03-24T19:12:22.154Z,2.67
2023-03-24T19:14:50.728Z,2.97
2023-03-24T19:17:18.480Z,2.92
2023-03-24T19:19:46.310Z,5.20
2023-03-24T19:22:16.341Z,4.18
2023-03-24T19:24:45.591Z,2.60
2023-03-24T19:27:13.635Z,2.38
2023-03-24T19:29:41.691Z,2.30
2023-03-24T19:32:09.444Z,1.52
2023-03-24T19:34:37.168Z,1.70
2023-03-24T19:37:05.596Z,2.20
2023-03-24T19:39:34.429Z,2.40
2023-03-24T19:42:07.677Z,1.33
2023-03-24T19:44:35.849Z,1.40
2023-03-24T19:47:03.802Z,1.55
2023-03-24T19:49:32.291Z,1.33
2023-03-24T19:52:01.525Z,1.30
2023-03-24T19:54:29.222Z,2.42
2023-03-24T19:56:57.078Z,1.30
2023-03-24T19:59:26.404Z,2.45
2023-03-24T20:01:54.224Z,1.73
2023-03-24T20:04:22.168Z,1.30
2023-03-24T20:06:49.890Z,1.38
2023-03-24T20:09:17.822Z,3.60
2023-03-24T20:11:45.707Z,1.52
2023-03-24T20:14:13.541Z,1.77
2023-03-24T20:16:42.781Z,1.63
2023-03-24T20:19:10.577Z,1.63
2023-03-24T20:21:38.460Z,1.42
2023-03-24T20:24:06.569Z,1.10
2023-03-24T20:26:34.466Z,1.20
2023-03-24T20:29:02.622Z,2.05
2023-03-24T20:31:30.568Z,1.20
2023-03-24T20:33:59.785Z,2.90
2023-03-24T20:36:27.582Z,1.00
2023-03-24T20:38:59.348Z,1.13
2023-03-24T20:41:27.517Z,1.02
2023-03-24T20:43:55.476Z,1.13
2023-03-24T20:46:23.517Z,1.10
2023-03-24T20:48:51.503Z,1.55
2023-03-24T20:51:20.725Z,1.10
2023-03-24T20:53:49.891Z,1.10
2023-03-24T20:56:18.936Z,1.10
2023-03-24T20:58:47.026Z,0.90
2023-03-24T21:01:20.512Z,1.00
2023-03-24T21:03:48.804Z,1.10
2023-03-24T21:06:17.388Z,1.00
2023-03-24T21:08:46.528Z,1.00
2023-03-24T21:11:14.762Z,1.00
2023-03-24T21:13:42.493Z,1.00
2023-03-24T21:16:12.678Z,0.90
2023-03-24T21:18:42.660Z,1.00
2023-03-24T21:21:12.336Z,0.98
2023-03-24T21:23:41.488Z,1.40
2023-03-24T21:26:13.468Z,1.00
2023-03-24T21:28:43.300Z,1.02
2023-03-24T21:31:12.809Z,1.10
2023-03-24T21:33:43.327Z,1.00
2023-03-24T21:36:11.917Z,1.00
2023-03-24T21:38:40.072Z,1.48
2023-03-24T21:41:08.667Z,1.00
2023-03-24T21:43:40.507Z,1.17
2023-03-24T21:46:14.968Z,1.05
2023-03-24T21:48:50.092Z,2.05
2023-03-24T21:51:20.288Z,1.02
2023-03-24T21:53:48.780Z,1.10
2023-03-24T21:56:16.588Z,1.08
2023-03-24T21:58:46.383Z,2.05
2023-03-24T22:01:14.689Z,1.10
2023-03-24T22:03:42.526Z,0.90
2023-03-24T22:06:11.478Z,1.10
2023-03-24T22:08:43.529Z,1.00
2023-03-24T22:11:15.379Z,1.10
2023-03-24T22:13:43.394Z,1.17
2023-03-24T22:16:12.652Z,1.17
2023-03-24T22:18:40.472Z,1.02
2023-03-24T22:21:10.571Z,1.08
2023-03-24T22:23:40.548Z,1.30
2023-03-24T22:26:11.725Z,1.30
2023-03-24T22:28:39.931Z,1.00
2023-03-24T22:31:10.483Z,1.10
2023-03-24T22:33:39.973Z,1.10
2023-03-24T22:36:08.980Z,1.30
2023-03-24T22:38:37.003Z,1.20
2023-03-24T22:41:07.176Z,1.30
2023-03-24T22:43:36.346Z,1.10
2023-03-24T22:46:04.755Z,1.10
2023-03-24T22:48:32.606Z,1.20
2023-03-24T22:51:02.268Z,1.38
2023-03-24T22:53:31.163Z,1.70
2023-03-24T22:55:59.012Z,1.83
2023-03-24T22:58:27.023Z,3.35
2023-03-24T23:00:56.800Z,1.52
2023-03-24T23:03:24.770Z,4.15
2023-03-24T23:05:52.819Z,2.25
2023-03-24T23:08:22.182Z,1.30
2023-03-24T23:10:50.268Z,1.50
2023-03-24T23:13:18.032Z,1.30
2023-03-24T23:15:48.465Z,1.48
2023-03-24T23:18:16.811Z,1.80
2023-03-24T23:20:44.761Z,1.52
2023-03-24T23:23:13.419Z,1.50
2023-03-24T23:25:44.077Z,1.30
2023-03-24T23:28:12.746Z,1.40
2023-03-24T23:30:41.234Z,1.40
2023-03-24T23:33:14.653Z,1.45
2023-03-24T23:35:42.707Z,1.40
2023-03-24T23:38:10.549Z,1.80
2023-03-24T23:40:38.430Z,1.23
2023-03-24T23:43:07.512Z,1.52
2023-03-24T23:45:35.382Z,1.40
2023-03-24T23:48:03.425Z,1.50
2023-03-24T23:50:31.188Z,1.42
2023-03-24T23:52:59.236Z,1.55
2023-03-24T23:55:28.090Z,1.40
2023-03-24T23:57:56.529Z,1.42
